createdAt,value
2018-07-20T00:00:02.019Z,19.41
2018-07-20T00:01:13.027Z,19.37
2018-07-20T00:02:01.930Z,19.37
2018-07-20T00:03:01.889Z,19.28
2018-07-20T00:04:01.854Z,19.28
2018-07-20T00:05:01.829Z,19.31
2018-07-20T00:06:01.771Z,19.25
2018-07-20T00:07:01.741Z,19.14
2018-07-20T00:08:01.765Z,19.11
2018-07-20T00:09:01.658Z,19.07
2018-07-20T00:10:01.645Z,18.94
2018-07-20T00:11:01.592Z,19.00
2018-07-20T00:12:01.547Z,18.88
2018-07-20T00:13:01.516Z,18.90
2018-07-20T00:14:01.478Z,18.81
2018-07-20T00:15:01.446Z,18.69
2018-07-20T00:16:01.429Z,18.70
2018-07-20T00:17:11.559Z,18.66
2018-07-20T00:18:01.325Z,18.66
2018-07-20T00:19:01.293Z,18.60
2018-07-20T00:20:01.260Z,18.62
2018-07-20T00:21:01.234Z,18.45
2018-07-20T00:22:01.178Z,18.48
2018-07-20T00:23:01.144Z,18.36
2018-07-20T00:24:01.106Z,18.36
2018-07-20T00:25:01.076Z,18.41
2018-07-20T00:26:01.059Z,18.37
2018-07-20T00:27:00.987Z,18.26
2018-07-20T00:28:00.951Z,18.29
2018-07-20T00:29:00.918Z,18.23
2018-07-20T00:30:00.888Z,18.11
2018-07-20T00:31:00.848Z,18.05
2018-07-20T00:32:00.834Z,17.99
2018-07-20T00:33:00.769Z,18.00
2018-07-20T00:34:00.734Z,17.96
2018-07-20T00:35:00.689Z,18.00
2018-07-20T00:36:00.652Z,17.95
2018-07-20T00:37:00.642Z,17.96
2018-07-20T00:38:00.582Z,17.97
2018-07-20T00:39:00.541Z,17.93
2018-07-20T00:40:00.500Z,17.86
2018-07-20T00:41:00.463Z,17.78
2018-07-20T00:42:00.455Z,17.77
2018-07-20T00:43:00.399Z,17.66
2018-07-20T00:44:00.360Z,17.63
2018-07-20T00:45:00.322Z,17.66
2018-07-20T00:46:00.284Z,17.66
2018-07-20T00:47:00.265Z,17.70
2018-07-20T00:48:00.204Z,17.54
2018-07-20T00:49:00.163Z,17.44
2018-07-20T00:50:11.609Z,17.40
2018-07-20T00:51:00.095Z,17.43
2018-07-20T00:52:00.050Z,17.48
2018-07-20T00:53:00.043Z,17.28
2018-07-20T00:53:59.983Z,17.41
2018-07-20T00:54:59.944Z,17.36
2018-07-20T00:55:59.910Z,17.41
2018-07-20T00:56:59.862Z,17.46
2018-07-20T00:57:59.846Z,17.31
2018-07-20T00:58:59.789Z,17.30
2018-07-20T00:59:59.748Z,17.15
2018-07-20T01:00:59.720Z,17.19
2018-07-20T01:01:59.681Z,17.15
2018-07-20T01:02:59.672Z,17.19
2018-07-20T01:03:59.604Z,17.16
2018-07-20T01:04:59.561Z,17.16
2018-07-20T01:05:59.521Z,17.18
2018-07-20T01:06:59.491Z,17.19
2018-07-20T01:07:59.455Z,17.14
2018-07-20T01:08:59.431Z,17.19
2018-07-20T01:09:59.372Z,17.14
2018-07-20T01:10:59.333Z,17.14
2018-07-20T01:11:59.296Z,17.07
2018-07-20T01:12:59.268Z,17.04
2018-07-20T01:13:59.249Z,17.03
2018-07-20T01:14:59.187Z,16.94
2018-07-20T01:15:59.151Z,16.81
2018-07-20T01:16:59.104Z,16.71
2018-07-20T01:17:59.066Z,16.76
2018-07-20T01:18:59.050Z,16.73
2018-07-20T01:19:58.992Z,16.64
2018-07-20T01:20:58.961Z,16.75
2018-07-20T01:21:58.921Z,16.64
2018-07-20T01:22:58.880Z,16.67
2018-07-20T01:24:08.673Z,16.64
2018-07-20T01:24:58.808Z,16.58
2018-07-20T01:25:58.770Z,16.63
2018-07-20T01:26:58.727Z,16.53
2018-07-20T01:27:58.689Z,16.60
2018-07-20T01:28:58.648Z,16.52
2018-07-20T01:29:58.633Z,16.56
2018-07-20T01:30:58.579Z,16.56
2018-07-20T01:31:58.539Z,16.61
2018-07-20T01:32:58.507Z,16.63
2018-07-20T01:33:58.465Z,16.48
2018-07-20T01:34:58.443Z,16.41
2018-07-20T01:35:58.380Z,16.46
2018-07-20T01:36:58.351Z,16.49
2018-07-20T01:37:58.312Z,16.50
2018-07-20T01:38:58.266Z,16.38
2018-07-20T01:39:58.258Z,16.39
2018-07-20T01:40:58.188Z,16.43
2018-07-20T01:41:58.153Z,16.46
2018-07-20T01:42:58.125Z,16.41
2018-07-20T01:43:58.083Z,16.42
2018-07-20T01:44:58.048Z,16.48
2018-07-20T01:45:58.029Z,16.45
2018-07-20T01:46:57.964Z,16.42
2018-07-20T01:47:57.927Z,16.38
2018-07-20T01:48:57.886Z,16.45
2018-07-20T01:49:57.848Z,16.41
2018-07-20T01:50:57.838Z,16.42
2018-07-20T01:51:57.781Z,16.34
2018-07-20T01:52:57.734Z,16.48
2018-07-20T01:53:57.698Z,16.45
2018-07-20T01:54:57.664Z,16.38
2018-07-20T01:55:57.650Z,16.27
2018-07-20T01:56:57.588Z,16.27
2018-07-20T01:57:57.552Z,16.31
2018-07-20T01:58:57.504Z,16.31
2018-07-20T01:59:57.465Z,16.14
2018-07-20T02:00:57.429Z,16.12
2018-07-20T02:01:57.410Z,16.09
2018-07-20T02:02:57.356Z,16.30
2018-07-20T02:03:57.323Z,16.12
2018-07-20T02:04:57.282Z,16.12
2018-07-20T02:05:57.247Z,16.12
2018-07-20T02:06:57.221Z,16.04
2018-07-20T02:07:57.160Z,16.27
2018-07-20T02:08:57.129Z,16.07
2018-07-20T02:09:57.089Z,16.08
2018-07-20T02:10:57.045Z,16.07
2018-07-20T02:11:57.033Z,16.04
2018-07-20T02:12:56.969Z,16.08
2018-07-20T02:13:56.927Z,16.05
2018-07-20T02:14:56.898Z,16.07
2018-07-20T02:15:56.859Z,16.14
2018-07-20T02:17:06.709Z,16.11
2018-07-20T02:17:56.774Z,16.12
2018-07-20T02:18:56.738Z,15.87
2018-07-20T02:19:56.697Z,15.90
2018-07-20T02:20:56.669Z,15.76
2018-07-20T02:21:56.628Z,15.82
2018-07-20T02:22:56.607Z,15.83
2018-07-20T02:23:56.545Z,15.69
2018-07-20T02:24:56.515Z,15.76
2018-07-20T02:25:56.474Z,15.72
2018-07-20T02:26:56.437Z,15.74
2018-07-20T02:27:56.420Z,15.71
2018-07-20T02:28:56.352Z,15.68
2018-07-20T02:29:56.313Z,15.74
2018-07-20T02:30:56.275Z,15.78
2018-07-20T02:31:56.235Z,15.76
2018-07-20T02:32:56.235Z,15.72
2018-07-20T02:33:56.165Z,15.74
2018-07-20T02:34:56.129Z,15.64
2018-07-20T02:35:56.091Z,15.67
2018-07-20T02:36:56.049Z,15.69
2018-07-20T02:37:56.006Z,15.62
2018-07-20T02:38:55.998Z,15.57
2018-07-20T02:39:55.935Z,15.59
2018-07-20T02:40:55.890Z,15.60
2018-07-20T02:41:55.861Z,15.59
2018-07-20T02:42:55.815Z,15.59
2018-07-20T02:43:55.795Z,15.56
2018-07-20T02:44:55.745Z,15.54
2018-07-20T02:45:55.704Z,15.60
2018-07-20T02:46:55.666Z,15.60
2018-07-20T02:47:55.631Z,15.56
2018-07-20T02:48:55.612Z,15.59
2018-07-20T02:49:55.544Z,15.56
2018-07-20T02:50:55.505Z,15.59
2018-07-20T02:51:55.466Z,15.59
2018-07-20T02:52:55.436Z,15.57
2018-07-20T02:53:55.398Z,15.56
2018-07-20T02:54:55.374Z,15.60
2018-07-20T02:55:55.316Z,15.53
2018-07-20T02:56:55.281Z,15.57
2018-07-20T02:57:55.241Z,15.50
2018-07-20T02:58:55.206Z,15.41
2018-07-20T02:59:55.185Z,15.34
2018-07-20T03:00:55.120Z,15.36
2018-07-20T03:01:55.075Z,15.39
2018-07-20T03:02:55.043Z,15.32
2018-07-20T03:03:55.004Z,15.36
2018-07-20T03:04:54.991Z,15.35
2018-07-20T03:05:54.934Z,15.46
2018-07-20T03:06:54.891Z,15.46
2018-07-20T03:07:54.967Z,15.50
2018-07-20T03:09:05.329Z,15.47
2018-07-20T03:09:54.804Z,15.47
2018-07-20T03:10:54.733Z,15.47
2018-07-20T03:11:54.690Z,15.47
2018-07-20T03:12:54.654Z,15.51
2018-07-20T03:13:54.638Z,15.60
2018-07-20T03:14:54.590Z,15.60
2018-07-20T03:15:54.570Z,15.56
2018-07-20T03:16:54.505Z,15.62
2018-07-20T03:17:54.467Z,15.64
2018-07-20T03:18:54.424Z,15.67
2018-07-20T03:19:54.381Z,15.56
2018-07-20T03:20:54.386Z,15.57
2018-07-20T03:21:54.305Z,15.57
2018-07-20T03:22:54.276Z,15.59
2018-07-20T03:23:54.237Z,15.56
2018-07-20T03:24:54.194Z,15.53
2018-07-20T03:25:54.179Z,15.46
2018-07-20T03:26:54.122Z,15.53
2018-07-20T03:28:04.276Z,15.47
2018-07-20T03:28:54.037Z,15.43
2018-07-20T03:29:53.996Z,15.39
2018-07-20T03:30:53.958Z,15.38
2018-07-20T03:31:53.938Z,15.29
2018-07-20T03:32:53.935Z,15.29
2018-07-20T03:33:53.847Z,15.27
2018-07-20T03:34:53.810Z,15.34
2018-07-20T03:35:53.773Z,15.31
2018-07-20T03:36:53.749Z,15.28
2018-07-20T03:37:53.689Z,15.19
2018-07-20T03:38:53.656Z,15.14
2018-07-20T03:39:53.613Z,15.10
2018-07-20T03:40:53.566Z,15.11
2018-07-20T03:41:53.557Z,15.20
2018-07-20T03:42:53.490Z,15.17
2018-07-20T03:43:53.452Z,15.32
2018-07-20T03:45:04.811Z,15.17
2018-07-20T03:45:53.382Z,15.14
2018-07-20T03:46:53.335Z,15.11
2018-07-20T03:47:53.354Z,15.17
2018-07-20T03:48:53.273Z,15.23
2018-07-20T03:49:53.221Z,15.31
2018-07-20T03:50:53.189Z,15.28
2018-07-20T03:51:53.151Z,15.27
2018-07-20T03:52:53.126Z,15.31
2018-07-20T03:53:53.065Z,15.38
2018-07-20T03:54:53.034Z,15.50
2018-07-20T03:55:52.994Z,15.41
2018-07-20T03:56:52.958Z,15.50
2018-07-20T03:57:52.936Z,15.51
2018-07-20T03:58:52.868Z,15.57
2018-07-20T03:59:52.829Z,15.60
2018-07-20T04:00:52.792Z,15.60
2018-07-20T04:01:52.755Z,15.59
2018-07-20T04:02:52.746Z,15.60
2018-07-20T04:03:52.687Z,15.67
2018-07-20T04:04:52.650Z,15.69
2018-07-20T04:05:52.606Z,15.69
2018-07-20T04:06:52.562Z,15.68
2018-07-20T04:07:52.522Z,15.64
2018-07-20T04:08:52.516Z,15.67
2018-07-20T04:09:52.451Z,15.74
2018-07-20T04:10:52.399Z,15.75
2018-07-20T04:11:52.367Z,15.75
2018-07-20T04:12:52.328Z,15.83
2018-07-20T04:13:52.309Z,15.82
2018-07-20T04:14:52.257Z,15.82
2018-07-20T04:15:52.218Z,15.86
2018-07-20T04:16:52.177Z,15.93
2018-07-20T04:17:52.140Z,16.00
2018-07-20T04:18:52.123Z,16.14
2018-07-20T04:19:52.059Z,16.07
2018-07-20T04:20:52.021Z,16.24
2018-07-20T04:21:51.982Z,16.24
2018-07-20T04:23:02.349Z,16.42
2018-07-20T04:23:51.904Z,16.42
2018-07-20T04:24:51.897Z,16.38
2018-07-20T04:25:51.830Z,16.45
2018-07-20T04:26:51.799Z,16.50
2018-07-20T04:27:51.757Z,16.56
2018-07-20T04:28:51.712Z,16.61
2018-07-20T04:29:51.696Z,16.66
2018-07-20T04:30:51.634Z,16.64
2018-07-20T04:31:51.595Z,16.75
2018-07-20T04:32:51.566Z,16.78
2018-07-20T04:33:51.525Z,16.86
2018-07-20T04:34:51.508Z,16.86
2018-07-20T04:35:51.442Z,17.00
2018-07-20T04:36:51.402Z,17.04
2018-07-20T04:37:51.369Z,17.04
2018-07-20T04:38:51.333Z,17.04
2018-07-20T04:39:51.324Z,17.15
2018-07-20T04:40:51.253Z,17.07
2018-07-20T04:41:51.212Z,17.06
2018-07-20T04:42:51.176Z,17.12
2018-07-20T04:43:51.171Z,17.12
2018-07-20T04:44:51.107Z,17.03
2018-07-20T04:45:51.091Z,17.03
2018-07-20T04:46:51.028Z,17.07
2018-07-20T04:47:50.990Z,16.94
2018-07-20T04:48:50.943Z,17.00
2018-07-20T04:49:50.940Z,16.88
2018-07-20T04:50:50.894Z,16.86
2018-07-20T04:51:50.830Z,16.85
2018-07-20T04:52:50.798Z,16.78
2018-07-20T04:53:50.762Z,16.76
2018-07-20T04:54:50.724Z,16.75
2018-07-20T04:55:50.707Z,16.85
2018-07-20T04:56:50.648Z,16.83
2018-07-20T04:57:50.607Z,16.85
2018-07-20T04:59:00.895Z,16.93
2018-07-20T04:59:50.526Z,16.93
2018-07-20T05:00:50.487Z,16.98
2018-07-20T05:01:50.471Z,17.01
2018-07-20T05:02:50.421Z,17.00
2018-07-20T05:03:50.487Z,17.41
2018-07-20T05:04:50.354Z,17.87
2018-07-20T05:05:50.340Z,18.23
2018-07-20T05:06:50.282Z,18.54
2018-07-20T05:07:50.222Z,18.65
2018-07-20T05:08:50.246Z,18.98
2018-07-20T05:09:50.156Z,19.19
2018-07-20T05:10:50.114Z,19.23
2018-07-20T05:11:50.099Z,19.54
2018-07-20T05:12:50.033Z,19.65
2018-07-20T05:13:50.001Z,20.02
2018-07-20T05:14:49.965Z,20.39
2018-07-20T05:15:49.940Z,20.73
2018-07-20T05:16:59.447Z,20.76
2018-07-20T05:17:49.851Z,21.03
2018-07-20T05:18:49.816Z,21.21
2018-07-20T05:19:49.770Z,21.62
2018-07-20T05:20:49.740Z,21.86
2018-07-20T05:21:49.728Z,22.10
2018-07-20T05:22:49.666Z,22.37
2018-07-20T05:23:49.622Z,22.58
2018-07-20T05:24:49.596Z,22.83
2018-07-20T05:25:49.564Z,22.83
2018-07-20T05:26:49.544Z,23.01
2018-07-20T05:27:49.486Z,22.98
2018-07-20T05:28:49.440Z,23.10
2018-07-20T05:29:49.402Z,23.31
2018-07-20T05:30:49.368Z,23.48
2018-07-20T05:31:49.361Z,23.60
2018-07-20T05:32:49.304Z,23.65
2018-07-20T05:33:49.270Z,23.76
2018-07-20T05:34:59.475Z,24.08
2018-07-20T05:35:49.195Z,24.34
2018-07-20T05:36:49.167Z,24.53
2018-07-20T05:37:49.149Z,24.68
2018-07-20T05:38:49.088Z,24.80
2018-07-20T05:39:49.058Z,24.76
2018-07-20T05:40:49.016Z,25.13
2018-07-20T05:41:48.980Z,25.17
2018-07-20T05:42:48.977Z,25.18
2018-07-20T05:43:48.917Z,25.30
2018-07-20T05:44:48.892Z,25.35
2018-07-20T05:45:48.848Z,25.64
2018-07-20T05:46:48.804Z,26.17
2018-07-20T05:47:48.801Z,26.37
2018-07-20T05:48:48.740Z,26.52
2018-07-20T05:49:48.707Z,26.57
2018-07-20T05:50:48.678Z,26.84
2018-07-20T05:51:59.013Z,27.37
2018-07-20T05:52:48.636Z,27.27
2018-07-20T05:53:48.575Z,28.02
2018-07-20T05:54:48.542Z,28.00
2018-07-20T05:55:48.510Z,27.96
2018-07-20T05:56:48.468Z,27.92
2018-07-20T05:57:48.440Z,27.93
2018-07-20T05:58:48.423Z,27.93
2018-07-20T05:59:48.370Z,27.93
2018-07-20T06:00:48.342Z,28.27
2018-07-20T06:01:48.314Z,28.51
2018-07-20T06:02:48.303Z,28.74
2018-07-20T06:03:48.248Z,28.77
2018-07-20T06:04:48.213Z,28.56
2018-07-20T06:05:48.179Z,27.65
2018-07-20T06:06:48.145Z,27.18
2018-07-20T06:07:48.138Z,27.02
2018-07-20T06:08:48.074Z,27.43
2018-07-20T06:09:48.042Z,27.84
2018-07-20T06:10:59.061Z,28.19
2018-07-20T06:11:47.984Z,27.70
2018-07-20T06:12:47.948Z,27.94
2018-07-20T06:13:47.953Z,28.17
2018-07-20T06:14:47.896Z,28.52
2018-07-20T06:15:47.881Z,28.86
2018-07-20T06:16:47.820Z,29.27
2018-07-20T06:17:47.783Z,29.34
2018-07-20T06:18:47.783Z,29.21
2018-07-20T06:19:47.730Z,29.27
2018-07-20T06:20:47.692Z,29.30
2018-07-20T06:21:47.650Z,29.31
2018-07-20T06:22:47.635Z,29.00
2018-07-20T06:23:47.627Z,28.88
2018-07-20T06:24:47.561Z,29.04
2018-07-20T06:25:47.533Z,28.67
2018-07-20T06:26:47.491Z,28.34
2018-07-20T06:27:47.462Z,28.90
2018-07-20T06:28:47.458Z,29.61
2018-07-20T06:29:47.396Z,29.64
2018-07-20T06:30:47.376Z,29.60
2018-07-20T06:31:47.342Z,29.58
2018-07-20T06:32:47.313Z,29.92
2018-07-20T06:33:47.279Z,30.23
2018-07-20T06:34:47.258Z,30.35
2018-07-20T06:35:47.207Z,30.67
2018-07-20T06:36:47.184Z,30.43
2018-07-20T06:37:47.152Z,30.24
2018-07-20T06:38:47.113Z,30.27
2018-07-20T06:39:47.099Z,30.46
2018-07-20T06:40:47.108Z,30.11
2018-07-20T06:41:47.018Z,29.73
2018-07-20T06:42:46.991Z,29.55
2018-07-20T06:43:46.962Z,29.27
2018-07-20T06:44:46.960Z,28.83
2018-07-20T06:45:46.899Z,28.37
2018-07-20T06:46:46.858Z,28.74
2018-07-20T06:47:46.828Z,29.26
2018-07-20T06:48:46.804Z,29.49
2018-07-20T06:49:46.777Z,29.34
2018-07-20T06:50:56.621Z,30.10
2018-07-20T06:51:46.702Z,30.00
2018-07-20T06:52:46.678Z,29.94
2018-07-20T06:53:46.645Z,29.80
2018-07-20T06:54:46.614Z,29.34
2018-07-20T06:55:46.647Z,29.04
2018-07-20T06:56:46.550Z,28.34
2018-07-20T06:57:46.519Z,27.93
2018-07-20T06:58:46.484Z,28.30
2018-07-20T06:59:46.449Z,28.67
2018-07-20T07:00:46.452Z,29.37
2018-07-20T07:01:46.399Z,29.94
2018-07-20T07:02:46.364Z,30.55
2018-07-20T07:03:46.333Z,30.43
2018-07-20T07:04:46.296Z,30.79
2018-07-20T07:05:46.266Z,31.14
2018-07-20T07:06:46.261Z,31.04
2018-07-20T07:07:46.210Z,31.38
2018-07-20T07:08:46.173Z,31.12
2018-07-20T07:09:56.647Z,30.60
2018-07-20T07:10:46.118Z,30.15
2018-07-20T07:11:46.105Z,30.23
2018-07-20T07:12:46.051Z,30.13
2018-07-20T07:13:46.024Z,29.63
2018-07-20T07:14:46.010Z,29.19
2018-07-20T07:15:45.951Z,29.43
2018-07-20T07:16:45.944Z,29.89
2018-07-20T07:17:45.889Z,29.78
2018-07-20T07:18:45.864Z,29.64
2018-07-20T07:19:45.838Z,30.26
2018-07-20T07:20:45.800Z,30.61
2018-07-20T07:21:45.797Z,30.73
2018-07-20T07:22:45.746Z,30.45
2018-07-20T07:23:45.782Z,30.07
2018-07-20T07:24:45.683Z,29.86
2018-07-20T07:25:45.650Z,30.34
2018-07-20T07:26:45.623Z,29.87
2018-07-20T07:27:45.604Z,30.02
2018-07-20T07:28:45.552Z,30.00
2018-07-20T07:29:55.701Z,30.15
2018-07-20T07:30:45.500Z,30.02
2018-07-20T07:31:45.470Z,29.90
2018-07-20T07:32:45.450Z,29.48
2018-07-20T07:33:45.413Z,29.87
2018-07-20T07:34:45.375Z,29.97
2018-07-20T07:35:45.353Z,30.32
2018-07-20T07:36:45.308Z,29.97
2018-07-20T07:37:45.307Z,29.41
2018-07-20T07:38:45.248Z,29.60
2018-07-20T07:39:45.214Z,29.64
2018-07-20T07:40:45.189Z,30.23
2018-07-20T07:41:45.166Z,29.74
2018-07-20T07:42:45.136Z,29.61
2018-07-20T07:43:45.128Z,29.65
2018-07-20T07:44:45.070Z,29.76
2018-07-20T07:45:45.038Z,29.98
2018-07-20T07:46:45.005Z,29.76
2018-07-20T07:47:44.977Z,29.74
2018-07-20T07:48:44.976Z,30.08
2018-07-20T07:49:44.923Z,29.74
2018-07-20T07:50:44.886Z,29.58
2018-07-20T07:51:44.855Z,29.08
2018-07-20T07:52:44.835Z,29.60
2018-07-20T07:53:44.823Z,29.57
2018-07-20T07:54:44.793Z,29.89
2018-07-20T07:55:44.744Z,30.02
2018-07-20T07:56:44.705Z,30.34
2018-07-20T07:57:44.676Z,30.72
2018-07-20T07:58:44.676Z,30.98
2018-07-20T07:59:44.620Z,30.70
2018-07-20T08:00:44.600Z,29.95
2018-07-20T08:01:44.566Z,29.52
2018-07-20T08:02:44.543Z,29.34
2018-07-20T08:03:44.516Z,29.49
2018-07-20T08:04:44.496Z,30.00
2018-07-20T08:05:44.444Z,30.00
2018-07-20T08:06:44.422Z,29.80
2018-07-20T08:07:44.390Z,29.57
2018-07-20T08:08:54.740Z,29.18
2018-07-20T08:09:44.426Z,28.77
2018-07-20T08:10:44.300Z,28.70
2018-07-20T08:11:44.272Z,28.85
2018-07-20T08:12:44.248Z,28.90
2018-07-20T08:13:44.215Z,28.85
2018-07-20T08:14:44.204Z,28.68
2018-07-20T08:15:44.161Z,28.81
2018-07-20T08:16:44.122Z,28.88
2018-07-20T08:17:44.089Z,28.89
2018-07-20T08:18:44.068Z,29.24
2018-07-20T08:19:44.042Z,29.46
2018-07-20T08:20:44.028Z,29.70
2018-07-20T08:21:43.976Z,29.86
2018-07-20T08:22:43.987Z,29.92
2018-07-20T08:23:43.923Z,29.82
2018-07-20T08:24:43.899Z,30.13
2018-07-20T08:25:43.885Z,30.24
2018-07-20T08:26:43.834Z,30.49
2018-07-20T08:27:54.290Z,30.24
2018-07-20T08:28:43.784Z,29.80
2018-07-20T08:29:43.761Z,29.89
2018-07-20T08:30:43.752Z,30.23
2018-07-20T08:31:43.715Z,29.95
2018-07-20T08:32:43.659Z,29.98
2018-07-20T08:33:43.630Z,29.68
2018-07-20T08:34:43.614Z,29.27
2018-07-20T08:35:43.584Z,29.58
2018-07-20T08:36:43.575Z,29.67
2018-07-20T08:37:43.519Z,30.13
2018-07-20T08:38:43.492Z,30.11
2018-07-20T08:39:43.465Z,30.08
2018-07-20T08:40:43.471Z,30.15
2018-07-20T08:41:43.416Z,30.49
2018-07-20T08:42:43.388Z,30.58
2018-07-20T08:43:43.361Z,30.20
2018-07-20T08:44:43.324Z,29.71
2018-07-20T08:45:43.301Z,29.58
2018-07-20T08:46:43.294Z,29.71
2018-07-20T08:47:43.245Z,30.26
2018-07-20T08:48:43.225Z,30.62
2018-07-20T08:49:43.209Z,30.88
2018-07-20T08:50:43.162Z,30.80
2018-07-20T08:51:43.167Z,30.13
2018-07-20T08:52:43.116Z,30.42
2018-07-20T08:53:43.090Z,30.83
2018-07-20T08:54:43.067Z,30.99
2018-07-20T08:55:43.035Z,31.35
2018-07-20T08:56:43.006Z,31.61
2018-07-20T08:57:42.995Z,31.69
2018-07-20T08:58:42.953Z,31.80
2018-07-20T08:59:42.924Z,32.13
2018-07-20T09:00:42.901Z,31.92
2018-07-20T09:01:42.877Z,31.62
2018-07-20T09:02:42.879Z,31.09
2018-07-20T09:03:42.878Z,30.38
2018-07-20T09:04:53.846Z,29.57
2018-07-20T09:05:42.775Z,29.53
2018-07-20T09:06:42.741Z,29.39
2018-07-20T09:07:42.739Z,29.78
2018-07-20T09:08:42.694Z,30.11
2018-07-20T09:09:42.662Z,30.65
2018-07-20T09:10:42.649Z,30.65
2018-07-20T09:11:42.619Z,30.76
2018-07-20T09:12:42.582Z,30.86
2018-07-20T09:13:42.672Z,31.21
2018-07-20T09:14:42.540Z,31.57
2018-07-20T09:15:42.517Z,31.01
2018-07-20T09:16:42.488Z,30.94
2018-07-20T09:17:42.459Z,30.82
2018-07-20T09:18:42.453Z,30.84
2018-07-20T09:19:42.411Z,30.98
2018-07-20T09:20:42.496Z,30.84
2018-07-20T09:21:42.357Z,30.60
2018-07-20T09:22:52.372Z,30.62
2018-07-20T09:23:42.319Z,30.55
2018-07-20T09:24:42.282Z,30.69
2018-07-20T09:25:42.259Z,30.99
2018-07-20T09:26:42.230Z,31.34
2018-07-20T09:27:42.203Z,31.10
2018-07-20T09:28:42.196Z,30.73
2018-07-20T09:29:42.145Z,30.55
2018-07-20T09:30:42.126Z,30.31
2018-07-20T09:31:42.094Z,30.05
2018-07-20T09:32:42.076Z,29.97
2018-07-20T09:33:42.048Z,30.08
2018-07-20T09:34:42.039Z,30.42
2018-07-20T09:35:41.991Z,30.35
2018-07-20T09:36:41.970Z,30.80
2018-07-20T09:37:41.946Z,31.16
2018-07-20T09:38:41.921Z,31.25
2018-07-20T09:39:41.922Z,31.51
2018-07-20T09:40:41.867Z,31.54
2018-07-20T09:41:51.912Z,31.47
2018-07-20T09:42:41.826Z,31.36
2018-07-20T09:43:41.793Z,31.36
2018-07-20T09:44:41.797Z,31.46
2018-07-20T09:45:41.742Z,31.72
2018-07-20T09:46:41.712Z,31.95
2018-07-20T09:47:41.687Z,32.00
2018-07-20T09:48:41.667Z,31.61
2018-07-20T09:49:41.641Z,31.50
2018-07-20T09:50:41.729Z,31.62
2018-07-20T09:51:41.679Z,31.69
2018-07-20T09:52:41.576Z,31.80
2018-07-20T09:53:41.536Z,31.95
2018-07-20T09:54:41.530Z,32.11
2018-07-20T09:55:41.528Z,32.30
2018-07-20T09:56:41.472Z,32.48
2018-07-20T09:57:41.466Z,32.21
2018-07-20T09:58:41.412Z,32.32
2018-07-20T09:59:41.417Z,32.14
2018-07-20T10:00:41.408Z,32.06
2018-07-20T10:01:41.343Z,31.54
2018-07-20T10:02:41.325Z,31.81
2018-07-20T10:03:41.302Z,31.96
2018-07-20T10:04:41.268Z,31.65
2018-07-20T10:05:41.249Z,31.69
2018-07-20T10:06:41.252Z,31.57
2018-07-20T10:07:41.207Z,31.70
2018-07-20T10:08:41.183Z,32.00
2018-07-20T10:09:41.160Z,31.50
2018-07-20T10:10:41.126Z,31.35
2018-07-20T10:11:41.126Z,31.19
2018-07-20T10:12:41.085Z,31.32
2018-07-20T10:13:41.055Z,31.34
2018-07-20T10:14:41.037Z,31.36
2018-07-20T10:15:41.015Z,31.51
2018-07-20T10:16:41.014Z,31.50
2018-07-20T10:17:40.967Z,31.06
2018-07-20T10:18:40.937Z,30.92
2018-07-20T10:19:40.911Z,30.79
2018-07-20T10:20:40.900Z,30.61
2018-07-20T10:21:40.873Z,30.72
2018-07-20T10:22:40.859Z,30.79
2018-07-20T10:23:40.813Z,30.89
2018-07-20T10:24:40.788Z,30.57
2018-07-20T10:25:40.818Z,30.58
2018-07-20T10:26:40.745Z,30.79
2018-07-20T10:27:40.742Z,30.95
2018-07-20T10:28:40.699Z,30.89
2018-07-20T10:29:40.674Z,30.86
2018-07-20T10:30:40.643Z,30.77
2018-07-20T10:31:40.614Z,30.97
2018-07-20T10:32:40.613Z,31.21
2018-07-20T10:33:40.578Z,31.63
2018-07-20T10:34:40.548Z,31.69
2018-07-20T10:35:40.518Z,32.04
2018-07-20T10:36:40.541Z,32.10
2018-07-20T10:37:40.487Z,31.65
2018-07-20T10:38:40.450Z,31.19
2018-07-20T10:39:40.421Z,31.14
2018-07-20T10:40:40.394Z,30.86
2018-07-20T10:41:40.377Z,30.89
2018-07-20T10:42:40.340Z,30.88
2018-07-20T10:43:40.332Z,30.83
2018-07-20T10:44:40.288Z,30.67
2018-07-20T10:45:40.276Z,30.79
2018-07-20T10:46:40.251Z,30.82
2018-07-20T10:47:40.217Z,31.19
2018-07-20T10:48:40.216Z,31.35
2018-07-20T10:49:40.167Z,31.50
2018-07-20T10:50:40.134Z,31.44
2018-07-20T10:51:40.109Z,31.53
2018-07-20T10:52:40.089Z,31.72
2018-07-20T10:53:40.092Z,32.00
2018-07-20T10:54:40.031Z,32.21
2018-07-20T10:55:40.007Z,32.13
2018-07-20T10:56:48.494Z,31.78
2018-07-20T10:57:39.960Z,31.34
2018-07-20T10:58:39.938Z,31.14
2018-07-20T10:59:39.934Z,31.20
2018-07-20T11:00:39.878Z,31.23
2018-07-20T11:01:39.905Z,31.21
2018-07-20T11:02:39.825Z,31.23
2018-07-20T11:03:39.802Z,31.20
2018-07-20T11:04:39.808Z,31.41
2018-07-20T11:05:39.758Z,31.25
2018-07-20T11:06:39.722Z,30.99
2018-07-20T11:07:39.695Z,31.16
2018-07-20T11:08:39.679Z,31.28
2018-07-20T11:09:39.679Z,31.38
2018-07-20T11:10:39.628Z,31.54
2018-07-20T11:11:39.604Z,31.56
2018-07-20T11:12:39.570Z,31.57
2018-07-20T11:13:39.640Z,31.78
2018-07-20T11:14:39.545Z,32.00
2018-07-20T11:15:51.019Z,32.11
2018-07-20T11:16:39.472Z,32.21
2018-07-20T11:17:39.446Z,32.25
2018-07-20T11:18:39.415Z,32.33
2018-07-20T11:19:39.390Z,32.08
2018-07-20T11:20:39.390Z,32.00
2018-07-20T11:21:39.349Z,31.86
2018-07-20T11:22:39.317Z,31.84
2018-07-20T11:23:39.292Z,31.65
2018-07-20T11:24:39.292Z,31.75
2018-07-20T11:25:39.238Z,31.80
2018-07-20T11:26:39.222Z,32.01
2018-07-20T11:27:39.198Z,32.00
2018-07-20T11:28:39.170Z,32.04
2018-07-20T11:29:39.174Z,32.10
2018-07-20T11:30:39.116Z,32.41
2018-07-20T11:31:39.093Z,32.59
2018-07-20T11:32:39.069Z,32.69
2018-07-20T11:33:39.044Z,32.11
2018-07-20T11:34:39.033Z,31.47
2018-07-20T11:35:39.022Z,31.38
2018-07-20T11:36:38.970Z,30.77
2018-07-20T11:37:38.948Z,30.47
2018-07-20T11:38:38.931Z,30.83
2018-07-20T11:39:38.904Z,31.13
2018-07-20T11:40:38.902Z,31.51
2018-07-20T11:41:38.857Z,31.76
2018-07-20T11:42:38.826Z,31.86
2018-07-20T11:43:38.802Z,32.00
2018-07-20T11:44:38.775Z,32.14
2018-07-20T11:45:38.775Z,32.04
2018-07-20T11:46:38.736Z,32.18
2018-07-20T11:47:38.708Z,31.95
2018-07-20T11:48:38.684Z,31.58
2018-07-20T11:49:38.696Z,31.54
2018-07-20T11:50:38.650Z,31.53
2018-07-20T11:51:38.603Z,31.56
2018-07-20T11:52:38.588Z,31.72
2018-07-20T11:53:38.562Z,31.91
2018-07-20T11:54:38.530Z,31.93
2018-07-20T11:55:38.526Z,31.99
2018-07-20T11:56:38.482Z,31.75
2018-07-20T11:57:38.456Z,31.58
2018-07-20T11:58:38.438Z,31.39
2018-07-20T11:59:38.413Z,31.12
2018-07-20T12:00:38.413Z,30.80
2018-07-20T12:01:38.366Z,30.88
2018-07-20T12:02:38.329Z,30.72
2018-07-20T12:03:38.306Z,30.35
2018-07-20T12:04:38.283Z,30.23
2018-07-20T12:05:38.255Z,30.45
2018-07-20T12:06:38.255Z,30.58
2018-07-20T12:07:38.208Z,30.84
2018-07-20T12:08:38.176Z,30.77
2018-07-20T12:09:38.150Z,30.86
2018-07-20T12:10:38.126Z,30.83
2018-07-20T12:11:38.123Z,30.89
2018-07-20T12:12:38.079Z,31.07
2018-07-20T12:13:38.051Z,31.23
2018-07-20T12:14:38.018Z,31.32
2018-07-20T12:15:37.987Z,31.51
2018-07-20T12:16:37.989Z,31.36
2018-07-20T12:17:37.932Z,31.34
2018-07-20T12:18:37.913Z,31.28
2018-07-20T12:19:37.886Z,31.28
2018-07-20T12:20:37.884Z,31.50
2018-07-20T12:21:37.835Z,31.61
2018-07-20T12:22:37.803Z,31.65
2018-07-20T12:23:37.771Z,31.46
2018-07-20T12:24:37.753Z,31.41
2018-07-20T12:25:37.728Z,31.21
2018-07-20T12:26:37.715Z,31.21
2018-07-20T12:27:37.667Z,31.29
2018-07-20T12:28:37.638Z,31.07
2018-07-20T12:29:37.612Z,30.92
2018-07-20T12:30:37.592Z,30.91
2018-07-20T12:31:47.597Z,30.97
2018-07-20T12:32:37.526Z,31.17
2018-07-20T12:33:37.505Z,31.35
2018-07-20T12:34:37.474Z,31.23
2018-07-20T12:35:37.448Z,30.97
2018-07-20T12:36:37.449Z,30.88
2018-07-20T12:37:37.404Z,31.01
2018-07-20T12:38:37.370Z,30.97
2018-07-20T12:39:37.345Z,31.10
2018-07-20T12:40:37.325Z,31.01
2018-07-20T12:41:37.319Z,31.04
2018-07-20T12:42:37.292Z,31.09
2018-07-20T12:43:37.241Z,31.06
2018-07-20T12:44:37.211Z,30.91
2018-07-20T12:45:37.181Z,30.73
2018-07-20T12:46:37.195Z,30.37
2018-07-20T12:47:37.128Z,30.37
2018-07-20T12:48:37.105Z,30.37
2018-07-20T12:49:37.079Z,30.32
2018-07-20T12:50:37.054Z,30.61
2018-07-20T12:51:37.022Z,30.64